ADDS METAR Data INFO
IDs: Format: Raw Decoded Include TAF

Data at: 0611 UTC 25 Jun 2018

PAIG 250556Z AUTO 20008KT 10SM OVC080 14/06 A2992 RMK AO2 SLP143 T01390061 10172 20139 56002 $
PAIG 250456Z AUTO 21010KT 10SM OVC080 15/06 A2992 RMK AO2 SLP144 T01500056 $
PAIG 250356Z AUTO 22008KT 10SM SCT065 OVC080 17/06 A2992 RMK AO2 SLP142 T01670061 $
PAIG 250256Z AUTO 23009G16KT 10SM FEW049 BKN080 17/06 A2993 RMK AO2 SLP146 T01670056 56012 $
PAIG 250156Z AUTO 23008KT 10SM FEW043 SCT050 OVC065 16/07 A2994 RMK AO2 SLP148 T01610067 $
PAIG 250056Z AUTO 25008KT 10SM BKN042 17/07 A2995 RMK AO2 SLP153 T01670072 $
PAIG 242356Z AUTO 21011G15KT 10SM SCT037 17/08 A2996 RMK AO2 SLP158 T01720078 10172 20117 58011 $
PAIG 242256Z AUTO 22010G16KT 10SM OVC080 15/09 A2998 RMK AO2 SLP162 T01500089 $
PAIG 242156Z AUTO 20011KT 10SM OVC075 14/08 A2999 RMK AO2 SLP166 T01440083 $
PAIG 242056Z AUTO 21011KT 10SM SCT047 OVC070 14/09 A3000 RMK AO2 SLP169 T01390089 56005 $
PAIG 241956Z AUTO 22012KT 10SM FEW046 OVC065 13/09 A3000 RMK AO2 SLP170 T01330089 $
PAIG 241856Z AUTO 20010KT 10SM BKN050 OVC060 12/09 A3001 RMK AO2 SLP172 T01220089 $
PAIG 241756Z AUTO 20009KT 10SM BKN050 BKN065 12/08 A3001 RMK AO2 RAE11 SLP174 P0000 60001 T01170083 10117 20089 56008 $
PAIG 241656Z AUTO 19007KT 10SM -RA FEW039 OVC055 11/08 A3002 RMK AO2 SLP176 P0000 T01060083 $
PAIG 241556Z AUTO 20007KT 10SM -RA BKN049 OVC060 09/08 A3003 RMK AO2 RAE16B38 SLP179 P0000 T00940083 $
PAIG 241456Z AUTO 19007KT 10SM -RA OVC070 09/08 A3003 RMK AO2 RAB42 SLP182 P0000 60001 T00890078 55003 $
PAIG 241356Z AUTO 18006KT 10SM BKN055 OVC065 09/08 A3003 RMK AO2 RAE51 SLP181 P0001 T00940083 $
PAIG 241256Z AUTO 17004KT 10SM -RA OVC055 09/09 A3004 RMK AO2 RAB33 SLP184 P0000 T00940089 $
PAIG 241156Z AUTO 19005KT 10SM OVC065 09/08 A3004 RMK AO2 SLP185 60000 T00940078 10122 20089 56000 $
PAIG 241056Z AUTO 16006KT 10SM BKN060 OVC080 09/07 A3004 RMK AO2 SLP185 T00940067 $
PAIG 240956Z AUTO 17004KT 10SM OVC080 09/08 A3004 RMK AO2 RAB10E23 SLP184 P0000 T00940078 $
PAIG 240856Z AUTO 17004KT 10SM SCT046 BKN060 OVC075 11/07 A3004 RMK AO2 SLP185 T01110072 401390067 58005 $
PAIG 240756Z AUTO 17004KT 10SM SCT055 OVC070 12/07 A3005 RMK AO2 SLP187 T01170072 $
PAIG 240656Z AUTO 13004KT 10SM BKN055 OVC075 12/08 A3006 RMK AO2 SLP189 T01220078 $
PAIG 240556Z AUTO 00000KT 10SM OVC055 12/08 A3006 RMK AO2 SLP190 T01170078 10139 20111 56005 $
PAIG 240456Z AUTO 00000KT 10SM FEW055 OVC070 12/07 A3006 RMK AO2 SLP192 T01170072 $
PAIG 240356Z AUTO 02005KT 10SM SCT070 13/07 A3007 RMK AO2 SLP192 T01280072 $
PAIG 240256Z AUTO 02003KT 10SM OVC065 12/07 A3007 RMK AO2 SLP196 T01220067 56005 $
PAIG 240156Z AUTO 04006KT 10SM BKN065 13/06 A3008 RMK AO2 SLP196 T01330056 $
PAIG 240056Z AUTO 03004KT 10SM OVC065 12/06 A3009 RMK AO2 SLP199 T01170061 $
PAIG 232356Z AUTO 03006KT 10SM SCT065 13/07 A3009 RMK AO2 SLP201 T01280067 10128 20094 58006 $
PAIG 232256Z AUTO 02005KT 10SM CLR 12/07 A3010 RMK AO2 SLP204 T01220072 $
PAIG 232156Z AUTO 03006KT 10SM SCT070 12/08 A3010 RMK AO2 SLP206 T01170078 $
PAIG 232056Z AUTO 02007KT 10SM BKN065 11/08 A3011 RMK AO2 SLP207 T01110078 58002 $
PAIG 231956Z AUTO 04006KT 10SM OVC065 11/08 A3012 RMK AO2 SLP209 T01060078 $
PAIG 231856Z AUTO 03006KT 10SM BKN065 10/08 A3012 RMK AO2 SLP210 T01000083 $